CheckWX is a tool to help pilots better visualize weather data.  It is not intended as a substitute for an official pre-flight weather briefing.

21:39:54 UTC

PATO METAR
Portage Glacier Airport
Portage, Alaska, USA
Current

31 mins ago

PATO 192109Z AUTO 13006G16KT 10SM BKN028 OVC039 11/09 A2970 RMK AO2 T01110089 TSNO
Observed
Sep-19 @ 21:09 UTC
Wind
  • 130° at 6 KTS
  • Gusting to 16 KTS
Visibility
10 SM
Flight Rules
MVFR
Cloud Levels
  • Broken at 2,800' AGL
  • Overcast at 3,900' AGL
Temperature
11°C / 52°F
Dewpoint
C / 48°F
Humidity
88%
Altimeter
29.7" Hg
Pressure
1005.72 hPa
Previous

40 mins ago

PATO 192100Z AUTO VRB06KT 10SM SCT026 BKN031 OVC040 11/09 A2970 RMK AO2 T01060089 TSNO
Observed
Sep-19 @ 21:00 UTC
Wind
  • Variable at 6 KTS
Visibility
10 SM
Flight Rules
VFR
Cloud Levels
  • Scattered at 2,600' AGL
  • Broken at 3,100' AGL
  • Overcast at 4,000' AGL
Temperature
11°C / 52°F
Dewpoint
C / 48°F
Humidity
88%
Altimeter
29.7" Hg
Pressure
1005.72 hPa
Previous

47 mins ago

PATO 192053Z AUTO 13007KT 100V160 10SM BKN028 OVC037 11/09 A2970 RMK AO2 SLP058 T01110089 53003 TSNO
Observed
Sep-19 @ 20:53 UTC
Wind
  • 130° at 7 KTS
Visibility
10 SM
Flight Rules
MVFR
Cloud Levels
  • Broken at 2,800' AGL
  • Overcast at 3,700' AGL
Temperature
11°C / 52°F
Dewpoint
C / 48°F
Humidity
88%
Altimeter
29.7" Hg
Pressure
1005.72 hPa